RYR7SR EDSB-LEPA
Flight info
| Callsign | RYR7SR |
|---|---|
| Flight time | 1h 41m |
| Altitude | 37000 |
| Route | STR1Z STR R11 OBORN R112 MIRGU DCT MOROK DCT GILIR DCT GEVEA DCT INCUS DCT BALSI DCT RETNO DCT TUPOX DCT MTG DCT DIVKO DCT VATIR DCT PIVUS DCT BODEQ DCT VERSO L129 LUNIK |
| Aircraft | A320/M-SDE3FGHIRWY/LB1 |
Departure
| Time | 2026-05-05 11:15 |
|---|---|
| Airport | Karlsruhe Baden-Baden Airport (EDSB) |
Arrival
| Time | 2026-05-05 12:56 |
|---|---|
| Airport | Palma de Mallorca Airport (LEPA) |
| Time | Latitude | Longitude | Altitude | Speed | Heading |
|---|---|---|---|---|---|
| 2026-05-05 10:47 | 48.78073 | 8.08815 | 410 ft | 0 kts | 159° |
| 2026-05-05 11:09 | 48.78072 | 8.08815 | 412 ft | 1 kts | 163° |
| 2026-05-05 11:10 | 48.78057 | 8.08793 | 412 ft | 5 kts | 256° |
| 2026-05-05 11:10 | 48.78096 | 8.08754 | 412 ft | 9 kts | 1° |
| 2026-05-05 11:10 | 48.78166 | 8.08811 | 409 ft | 14 kts | 33° |
| 2026-05-05 11:10 | 48.78254 | 8.08906 | 412 ft | 17 kts | 38° |
| 2026-05-05 11:11 | 48.78368 | 8.09019 | 409 ft | 22 kts | 32° |
| 2026-05-05 11:11 | 48.78509 | 8.09149 | 408 ft | 25 kts | 32° |
| 2026-05-05 11:11 | 48.78656 | 8.09289 | 410 ft | 20 kts | 29° |
| 2026-05-05 11:11 | 48.78724 | 8.09256 | 412 ft | 10 kts | 309° |
| 2026-05-05 11:12 | 48.78758 | 8.09179 | 409 ft | 8 kts | 301° |
| 2026-05-05 11:12 | 48.78755 | 8.09116 | 413 ft | 5 kts | 232° |
| 2026-05-05 11:12 | 48.78748 | 8.09108 | 409 ft | 0 kts | 218° |
| 2026-05-05 11:14 | 48.78745 | 8.09104 | 410 ft | 8 kts | 217° |
| 2026-05-05 11:14 | 48.78459 | 8.08834 | 413 ft | 85 kts | 211° |
| 2026-05-05 11:14 | 48.77780 | 8.08197 | 413 ft | 142 kts | 211° |
| 2026-05-05 11:15 | 48.76843 | 8.07307 | 704 ft | 163 kts | 213° |
| 2026-05-05 11:15 | 48.75907 | 8.06333 | 1372 ft | 165 kts | 215° |
| 2026-05-05 11:15 | 48.74925 | 8.05324 | 1854 ft | 181 kts | 213° |
| 2026-05-05 11:15 | 48.73801 | 8.04179 | 2082 ft | 210 kts | 214° |
| 2026-05-05 11:16 | 48.72504 | 8.02824 | 2299 ft | 244 kts | 215° |
| 2026-05-05 11:16 | 48.71049 | 8.01250 | 2782 ft | 265 kts | 216° |
| 2026-05-05 11:16 | 48.69588 | 7.99618 | 3971 ft | 257 kts | 217° |
| 2026-05-05 11:16 | 48.68158 | 7.97951 | 4940 ft | 262 kts | 216° |
| 2026-05-05 11:17 | 48.66714 | 7.96245 | 5878 ft | 264 kts | 216° |
| 2026-05-05 11:17 | 48.65213 | 7.94627 | 6728 ft | 267 kts | 211° |
| 2026-05-05 11:17 | 48.63626 | 7.93110 | 7493 ft | 273 kts | 210° |
| 2026-05-05 11:17 | 48.61992 | 7.91618 | 8358 ft | 275 kts | 210° |
| 2026-05-05 11:18 | 48.60355 | 7.90099 | 9257 ft | 278 kts | 210° |
| 2026-05-05 11:18 | 48.58683 | 7.88605 | 10077 ft | 281 kts | 207° |
| 2026-05-05 11:18 | 48.56898 | 7.87155 | 10393 ft | 303 kts | 206° |
| 2026-05-05 11:18 | 48.54953 | 7.85649 | 10682 ft | 324 kts | 206° |
| 2026-05-05 11:19 | 48.52920 | 7.84090 | 11320 ft | 331 kts | 206° |
| 2026-05-05 11:19 | 48.50855 | 7.82497 | 12085 ft | 335 kts | 206° |
| 2026-05-05 11:19 | 48.48775 | 7.80876 | 12853 ft | 339 kts | 207° |
| 2026-05-05 11:19 | 48.46675 | 7.79231 | 13599 ft | 342 kts | 207° |
| 2026-05-05 11:20 | 48.44556 | 7.77565 | 14251 ft | 347 kts | 207° |
| 2026-05-05 11:20 | 48.42401 | 7.75871 | 14856 ft | 351 kts | 207° |
| 2026-05-05 11:20 | 48.40227 | 7.74165 | 15500 ft | 354 kts | 206° |
| 2026-05-05 11:20 | 48.38038 | 7.72445 | 16169 ft | 357 kts | 207° |
| 2026-05-05 11:21 | 48.35825 | 7.70707 | 16833 ft | 360 kts | 207° |
| 2026-05-05 11:21 | 48.33594 | 7.68957 | 17462 ft | 364 kts | 207° |
| 2026-05-05 11:21 | 48.31369 | 7.67219 | 18056 ft | 367 kts | 207° |
| 2026-05-05 11:21 | 48.29092 | 7.65444 | 18588 ft | 370 kts | 207° |
| 2026-05-05 11:22 | 48.26800 | 7.63659 | 19127 ft | 372 kts | 207° |
| 2026-05-05 11:22 | 48.24494 | 7.61862 | 19675 ft | 375 kts | 206° |
| 2026-05-05 11:22 | 48.22173 | 7.60054 | 20227 ft | 377 kts | 206° |
| 2026-05-05 11:22 | 48.19838 | 7.58237 | 20806 ft | 379 kts | 206° |
| 2026-05-05 11:23 | 48.17487 | 7.56411 | 21394 ft | 382 kts | 206° |
| 2026-05-05 11:23 | 48.15116 | 7.54573 | 21969 ft | 385 kts | 206° |
| 2026-05-05 11:23 | 48.12730 | 7.52725 | 22523 ft | 387 kts | 206° |
| 2026-05-05 11:23 | 48.10330 | 7.50868 | 23048 ft | 390 kts | 206° |
| 2026-05-05 11:24 | 48.07912 | 7.48996 | 23547 ft | 392 kts | 206° |
| 2026-05-05 11:24 | 48.05485 | 7.47115 | 23969 ft | 394 kts | 206° |
| 2026-05-05 11:24 | 48.03045 | 7.45225 | 24386 ft | 396 kts | 206° |
| 2026-05-05 11:24 | 48.00591 | 7.43330 | 24798 ft | 397 kts | 205° |
| 2026-05-05 11:25 | 47.98129 | 7.41434 | 25202 ft | 399 kts | 205° |
| 2026-05-05 11:25 | 47.95658 | 7.39533 | 25587 ft | 401 kts | 205° |
| 2026-05-05 11:25 | 47.93174 | 7.37625 | 25961 ft | 402 kts | 205° |
| 2026-05-05 11:25 | 47.90678 | 7.35711 | 26333 ft | 404 kts | 205° |
| 2026-05-05 11:26 | 47.88172 | 7.33790 | 26726 ft | 406 kts | 205° |
| 2026-05-05 11:26 | 47.85652 | 7.31862 | 27125 ft | 408 kts | 205° |
| 2026-05-05 11:26 | 47.83120 | 7.29923 | 27495 ft | 410 kts | 205° |
| 2026-05-05 11:26 | 47.80581 | 7.27977 | 27840 ft | 412 kts | 204° |
| 2026-05-05 11:27 | 47.78032 | 7.26025 | 28183 ft | 413 kts | 205° |
| 2026-05-05 11:27 | 47.75467 | 7.24067 | 28507 ft | 415 kts | 204° |
| 2026-05-05 11:27 | 47.72890 | 7.22108 | 28831 ft | 417 kts | 204° |
| 2026-05-05 11:27 | 47.70306 | 7.20146 | 29141 ft | 418 kts | 204° |
| 2026-05-05 11:28 | 47.67709 | 7.18173 | 29445 ft | 420 kts | 204° |
| 2026-05-05 11:28 | 47.65103 | 7.16191 | 29744 ft | 422 kts | 204° |
| 2026-05-05 11:28 | 47.62490 | 7.14203 | 30017 ft | 423 kts | 204° |
| 2026-05-05 11:28 | 47.59865 | 7.12207 | 30280 ft | 424 kts | 204° |
| 2026-05-05 11:29 | 47.57234 | 7.10216 | 30508 ft | 426 kts | 205° |
| 2026-05-05 11:29 | 47.54589 | 7.08225 | 30717 ft | 427 kts | 205° |
| 2026-05-05 11:29 | 47.51934 | 7.06228 | 30955 ft | 428 kts | 205° |
| 2026-05-05 11:29 | 47.49286 | 7.04231 | 31251 ft | 427 kts | 205° |
| 2026-05-05 11:30 | 47.46644 | 7.02237 | 31560 ft | 426 kts | 205° |
| 2026-05-05 11:30 | 47.44005 | 7.00249 | 31888 ft | 425 kts | 205° |
| 2026-05-05 11:30 | 47.41374 | 6.98269 | 32188 ft | 424 kts | 205° |
| 2026-05-05 11:30 | 47.38746 | 6.96295 | 32493 ft | 423 kts | 205° |
| 2026-05-05 11:31 | 47.36125 | 6.94331 | 32806 ft | 422 kts | 206° |
| 2026-05-05 11:31 | 47.33512 | 6.92376 | 33112 ft | 421 kts | 206° |
| 2026-05-05 11:31 | 47.30899 | 6.90421 | 33404 ft | 420 kts | 206° |
| 2026-05-05 11:31 | 47.28294 | 6.88473 | 33726 ft | 420 kts | 206° |
| 2026-05-05 11:32 | 47.25695 | 6.86530 | 34020 ft | 419 kts | 206° |
| 2026-05-05 11:32 | 47.23097 | 6.84593 | 34266 ft | 418 kts | 206° |
| 2026-05-05 11:32 | 47.20500 | 6.82657 | 34513 ft | 418 kts | 206° |
| 2026-05-05 11:32 | 47.17943 | 6.80754 | 34757 ft | 418 kts | 206° |
| 2026-05-05 11:33 | 47.15356 | 6.78831 | 34999 ft | 416 kts | 206° |
| 2026-05-05 11:33 | 47.12771 | 6.76913 | 35232 ft | 416 kts | 206° |
| 2026-05-05 11:33 | 47.10193 | 6.75000 | 35457 ft | 415 kts | 206° |
| 2026-05-05 11:33 | 47.07612 | 6.73085 | 35648 ft | 415 kts | 207° |
| 2026-05-05 11:34 | 47.05034 | 6.71173 | 35845 ft | 415 kts | 207° |
| 2026-05-05 11:34 | 47.02456 | 6.69261 | 36016 ft | 415 kts | 207° |
| 2026-05-05 11:34 | 46.99876 | 6.67352 | 36217 ft | 415 kts | 207° |
| 2026-05-05 11:34 | 46.97297 | 6.65447 | 36385 ft | 415 kts | 207° |
| 2026-05-05 11:35 | 46.94718 | 6.63548 | 36596 ft | 415 kts | 207° |
| 2026-05-05 11:35 | 46.92142 | 6.61652 | 36785 ft | 414 kts | 207° |
| 2026-05-05 11:35 | 46.89561 | 6.59759 | 36894 ft | 415 kts | 207° |
| 2026-05-05 11:36 | 46.84404 | 6.55981 | 36901 ft | 414 kts | 207° |
| 2026-05-05 11:36 | 46.79252 | 6.52208 | 36905 ft | 414 kts | 207° |
| 2026-05-05 11:37 | 46.74097 | 6.48433 | 36910 ft | 415 kts | 207° |
| 2026-05-05 11:37 | 46.68938 | 6.44667 | 36906 ft | 415 kts | 207° |
| 2026-05-05 11:38 | 46.63780 | 6.40915 | 36908 ft | 415 kts | 207° |
| 2026-05-05 11:38 | 46.58611 | 6.37165 | 36910 ft | 415 kts | 207° |
| 2026-05-05 11:39 | 46.53443 | 6.33416 | 36924 ft | 415 kts | 207° |
| 2026-05-05 11:39 | 46.48273 | 6.29678 | 36924 ft | 415 kts | 207° |
| 2026-05-05 11:40 | 46.43098 | 6.25938 | 36926 ft | 416 kts | 207° |
| 2026-05-05 11:40 | 46.37919 | 6.22213 | 36953 ft | 416 kts | 207° |
| 2026-05-05 11:41 | 46.32771 | 6.18524 | 36964 ft | 415 kts | 207° |
| 2026-05-05 11:41 | 46.27595 | 6.14818 | 36962 ft | 415 kts | 206° |
| 2026-05-05 11:42 | 46.22063 | 6.12472 | 36965 ft | 418 kts | 191° |
| 2026-05-05 11:42 | 46.16315 | 6.11195 | 36961 ft | 418 kts | 191° |
| 2026-05-05 11:43 | 46.10561 | 6.09924 | 36960 ft | 418 kts | 191° |
| 2026-05-05 11:43 | 46.04806 | 6.08649 | 36961 ft | 418 kts | 191° |
| 2026-05-05 11:44 | 45.99060 | 6.07377 | 36951 ft | 418 kts | 191° |
| 2026-05-05 11:44 | 45.93319 | 6.06110 | 36962 ft | 417 kts | 191° |
| 2026-05-05 11:45 | 45.87584 | 6.04850 | 36967 ft | 417 kts | 191° |
| 2026-05-05 11:45 | 45.81851 | 6.03591 | 36966 ft | 417 kts | 191° |
| 2026-05-05 11:46 | 45.76128 | 6.02324 | 36965 ft | 416 kts | 192° |
| 2026-05-05 11:46 | 45.70413 | 6.01052 | 36958 ft | 415 kts | 192° |
| 2026-05-05 11:47 | 45.64710 | 5.99792 | 36969 ft | 415 kts | 192° |
| 2026-05-05 11:47 | 45.59015 | 5.98546 | 36964 ft | 414 kts | 192° |
| 2026-05-05 11:48 | 45.50475 | 5.96675 | 36964 ft | 413 kts | 192° |
| 2026-05-05 11:48 | 45.44802 | 5.95322 | 36965 ft | 413 kts | 194° |
| 2026-05-05 11:49 | 45.39208 | 5.93559 | 36958 ft | 411 kts | 197° |
| 2026-05-05 11:49 | 45.33652 | 5.91699 | 36951 ft | 409 kts | 197° |
| 2026-05-05 11:50 | 45.28138 | 5.89924 | 36938 ft | 409 kts | 196° |
| 2026-05-05 11:50 | 45.22576 | 5.88207 | 36932 ft | 409 kts | 196° |
| 2026-05-05 11:51 | 45.17020 | 5.86501 | 36935 ft | 408 kts | 196° |
| 2026-05-05 11:51 | 45.11465 | 5.84789 | 36939 ft | 408 kts | 196° |
| 2026-05-05 11:52 | 45.05918 | 5.83072 | 36940 ft | 408 kts | 196° |
| 2026-05-05 11:52 | 45.00377 | 5.81368 | 36928 ft | 407 kts | 197° |
| 2026-05-05 11:53 | 44.94850 | 5.79657 | 36934 ft | 406 kts | 197° |
| 2026-05-05 11:53 | 44.89334 | 5.77956 | 36932 ft | 405 kts | 197° |
| 2026-05-05 11:54 | 44.84754 | 5.76557 | 36927 ft | 405 kts | 197° |
| 2026-05-05 11:54 | 44.79253 | 5.74879 | 36945 ft | 404 kts | 197° |
| 2026-05-05 11:55 | 44.73769 | 5.73205 | 36944 ft | 403 kts | 197° |
| 2026-05-05 11:55 | 44.68298 | 5.71534 | 36949 ft | 402 kts | 197° |
| 2026-05-05 11:56 | 44.62828 | 5.69870 | 36957 ft | 402 kts | 197° |
| 2026-05-05 11:56 | 44.57354 | 5.68216 | 36947 ft | 403 kts | 197° |
| 2026-05-05 11:57 | 44.51877 | 5.66552 | 36949 ft | 403 kts | 196° |
| 2026-05-05 11:57 | 44.46402 | 5.64893 | 36935 ft | 402 kts | 197° |
| 2026-05-05 11:58 | 44.40930 | 5.63243 | 36938 ft | 403 kts | 197° |
| 2026-05-05 11:58 | 44.35595 | 5.61051 | 36942 ft | 398 kts | 205° |
| 2026-05-05 11:59 | 44.30451 | 5.58213 | 36950 ft | 397 kts | 205° |
| 2026-05-05 11:59 | 44.25341 | 5.55410 | 36940 ft | 397 kts | 205° |
| 2026-05-05 12:00 | 44.20199 | 5.52607 | 36947 ft | 396 kts | 205° |
| 2026-05-05 12:00 | 44.15067 | 5.49821 | 36955 ft | 396 kts | 205° |
| 2026-05-05 12:01 | 44.09931 | 5.47023 | 36956 ft | 396 kts | 205° |
| 2026-05-05 12:01 | 44.04800 | 5.44226 | 36942 ft | 395 kts | 205° |
| 2026-05-05 12:02 | 43.99678 | 5.41441 | 36956 ft | 395 kts | 205° |
| 2026-05-05 12:02 | 43.94550 | 5.38671 | 36959 ft | 395 kts | 205° |
| 2026-05-05 12:03 | 43.89429 | 5.35899 | 36934 ft | 395 kts | 205° |
| 2026-05-05 12:03 | 43.84313 | 5.33126 | 36972 ft | 395 kts | 205° |
| 2026-05-05 12:04 | 43.79195 | 5.30362 | 36968 ft | 395 kts | 205° |
| 2026-05-05 12:04 | 43.74069 | 5.27615 | 36965 ft | 395 kts | 205° |
| 2026-05-05 12:05 | 43.68953 | 5.24871 | 36945 ft | 395 kts | 205° |
| 2026-05-05 12:05 | 43.63834 | 5.22124 | 36958 ft | 395 kts | 205° |
| 2026-05-05 12:06 | 43.58708 | 5.19381 | 36956 ft | 395 kts | 205° |
| 2026-05-05 12:06 | 43.53587 | 5.16649 | 36958 ft | 394 kts | 205° |
| 2026-05-05 12:07 | 43.48469 | 5.13918 | 36948 ft | 395 kts | 205° |
| 2026-05-05 12:07 | 43.43380 | 5.11212 | 36952 ft | 395 kts | 205° |
| 2026-05-05 12:08 | 43.38327 | 5.08303 | 36953 ft | 391 kts | 213° |
| 2026-05-05 12:08 | 43.33831 | 5.04151 | 36956 ft | 389 kts | 217° |
| 2026-05-05 12:09 | 43.29364 | 4.99940 | 36929 ft | 390 kts | 217° |
| 2026-05-05 12:09 | 43.24887 | 4.95743 | 36934 ft | 390 kts | 217° |
| 2026-05-05 12:10 | 43.20412 | 4.91537 | 36966 ft | 390 kts | 217° |
| 2026-05-05 12:10 | 43.15929 | 4.87341 | 36965 ft | 390 kts | 217° |
| 2026-05-05 12:11 | 43.11457 | 4.83146 | 36940 ft | 390 kts | 217° |
| 2026-05-05 12:11 | 43.06979 | 4.78961 | 36948 ft | 390 kts | 217° |
| 2026-05-05 12:12 | 43.02303 | 4.75167 | 36952 ft | 391 kts | 212° |
| 2026-05-05 12:12 | 42.97543 | 4.71556 | 36959 ft | 391 kts | 212° |
| 2026-05-05 12:13 | 42.92781 | 4.67948 | 36962 ft | 391 kts | 212° |
| 2026-05-05 12:13 | 42.88021 | 4.64355 | 36957 ft | 391 kts | 212° |
| 2026-05-05 12:14 | 42.83262 | 4.60768 | 36963 ft | 391 kts | 212° |
| 2026-05-05 12:14 | 42.78540 | 4.57211 | 36995 ft | 390 kts | 212° |
| 2026-05-05 12:15 | 42.73757 | 4.53608 | 36981 ft | 390 kts | 212° |
| 2026-05-05 12:15 | 42.69038 | 4.50065 | 36979 ft | 390 kts | 212° |
| 2026-05-05 12:16 | 42.64287 | 4.46509 | 36974 ft | 390 kts | 212° |
| 2026-05-05 12:16 | 42.59541 | 4.42953 | 36969 ft | 390 kts | 212° |
| 2026-05-05 12:17 | 42.54789 | 4.39405 | 36967 ft | 390 kts | 212° |
| 2026-05-05 12:17 | 42.50043 | 4.35868 | 36949 ft | 389 kts | 212° |
| 2026-05-05 12:18 | 42.45300 | 4.32352 | 36959 ft | 388 kts | 212° |
| 2026-05-05 12:18 | 42.40565 | 4.28833 | 36962 ft | 388 kts | 213° |
| 2026-05-05 12:19 | 42.35838 | 4.25312 | 36964 ft | 388 kts | 212° |
| 2026-05-05 12:19 | 42.31114 | 4.21809 | 36939 ft | 387 kts | 213° |
| 2026-05-05 12:20 | 42.26395 | 4.18317 | 36970 ft | 386 kts | 213° |
| 2026-05-05 12:20 | 42.21680 | 4.14841 | 36968 ft | 386 kts | 213° |
| 2026-05-05 12:21 | 42.16963 | 4.11370 | 36963 ft | 386 kts | 213° |
| 2026-05-05 12:21 | 42.12248 | 4.07912 | 36935 ft | 386 kts | 213° |
| 2026-05-05 12:22 | 42.07542 | 4.04456 | 36943 ft | 385 kts | 213° |
| 2026-05-05 12:22 | 42.02839 | 4.01004 | 36948 ft | 385 kts | 213° |
| 2026-05-05 12:23 | 41.98140 | 3.97559 | 36950 ft | 385 kts | 213° |
| 2026-05-05 12:23 | 41.93415 | 3.94187 | 36944 ft | 387 kts | 208° |
| 2026-05-05 12:24 | 41.88134 | 3.92373 | 36927 ft | 396 kts | 197° |
| 2026-05-05 12:24 | 41.82698 | 3.91130 | 36936 ft | 396 kts | 197° |
| 2026-05-05 12:25 | 41.77266 | 3.89886 | 36941 ft | 396 kts | 197° |
| 2026-05-05 12:25 | 41.71842 | 3.88635 | 36947 ft | 396 kts | 197° |
| 2026-05-05 12:26 | 41.66419 | 3.87375 | 36934 ft | 395 kts | 197° |
| 2026-05-05 12:26 | 41.61002 | 3.86129 | 36942 ft | 395 kts | 197° |
| 2026-05-05 12:27 | 41.55757 | 3.84260 | 36946 ft | 389 kts | 203° |
| 2026-05-05 12:27 | 41.50611 | 3.82142 | 36451 ft | 390 kts | 203° |
| 2026-05-05 12:28 | 41.48028 | 3.81079 | 35875 ft | 387 kts | 203° |
| 2026-05-05 12:28 | 41.45460 | 3.80026 | 35268 ft | 385 kts | 203° |
| 2026-05-05 12:28 | 41.42909 | 3.78984 | 34652 ft | 383 kts | 203° |
| 2026-05-05 12:28 | 41.40371 | 3.77945 | 34059 ft | 380 kts | 203° |
| 2026-05-05 12:29 | 41.37850 | 3.76912 | 33393 ft | 378 kts | 203° |
| 2026-05-05 12:29 | 41.35337 | 3.75881 | 32728 ft | 377 kts | 204° |
| 2026-05-05 12:29 | 41.32839 | 3.74861 | 32076 ft | 374 kts | 204° |
| 2026-05-05 12:29 | 41.30357 | 3.73856 | 31440 ft | 371 kts | 204° |
| 2026-05-05 12:30 | 41.27895 | 3.72859 | 30796 ft | 368 kts | 204° |
| 2026-05-05 12:30 | 41.25452 | 3.71871 | 30191 ft | 366 kts | 204° |
| 2026-05-05 12:30 | 41.23025 | 3.70893 | 29517 ft | 364 kts | 204° |
| 2026-05-05 12:30 | 41.20608 | 3.69917 | 28822 ft | 362 kts | 204° |
| 2026-05-05 12:31 | 41.18206 | 3.68948 | 28139 ft | 360 kts | 203° |
| 2026-05-05 12:31 | 41.15814 | 3.67979 | 27478 ft | 359 kts | 203° |
| 2026-05-05 12:31 | 41.13429 | 3.67016 | 26870 ft | 357 kts | 203° |
| 2026-05-05 12:31 | 41.11060 | 3.66061 | 26239 ft | 355 kts | 203° |
| 2026-05-05 12:32 | 41.08700 | 3.65109 | 25626 ft | 354 kts | 203° |
| 2026-05-05 12:32 | 41.06347 | 3.64158 | 24990 ft | 353 kts | 202° |
| 2026-05-05 12:32 | 41.04003 | 3.63209 | 24390 ft | 352 kts | 202° |
| 2026-05-05 12:32 | 41.01657 | 3.62262 | 23823 ft | 352 kts | 202° |
| 2026-05-05 12:33 | 40.99315 | 3.61319 | 23194 ft | 353 kts | 202° |
| 2026-05-05 12:33 | 40.96963 | 3.60375 | 22516 ft | 353 kts | 202° |
| 2026-05-05 12:33 | 40.94609 | 3.59430 | 21853 ft | 354 kts | 202° |
| 2026-05-05 12:33 | 40.92249 | 3.58488 | 21205 ft | 354 kts | 201° |
| 2026-05-05 12:34 | 40.89887 | 3.57546 | 20577 ft | 355 kts | 201° |
| 2026-05-05 12:34 | 40.87533 | 3.56608 | 20127 ft | 350 kts | 201° |
| 2026-05-05 12:34 | 40.85221 | 3.55683 | 19749 ft | 344 kts | 201° |
| 2026-05-05 12:34 | 40.82949 | 3.54770 | 19387 ft | 338 kts | 202° |
| 2026-05-05 12:35 | 40.80718 | 3.53873 | 19027 ft | 333 kts | 202° |
| 2026-05-05 12:35 | 40.78515 | 3.52989 | 18672 ft | 329 kts | 201° |
| 2026-05-05 12:35 | 40.76327 | 3.52114 | 18323 ft | 328 kts | 201° |
| 2026-05-05 12:35 | 40.74148 | 3.51242 | 17937 ft | 326 kts | 201° |
| 2026-05-05 12:36 | 40.71982 | 3.50378 | 17629 ft | 325 kts | 201° |
| 2026-05-05 12:36 | 40.69817 | 3.49518 | 17364 ft | 324 kts | 201° |
| 2026-05-05 12:36 | 40.67660 | 3.48659 | 17101 ft | 324 kts | 201° |
| 2026-05-05 12:36 | 40.65508 | 3.47803 | 16841 ft | 322 kts | 201° |
| 2026-05-05 12:37 | 40.63392 | 3.46963 | 16580 ft | 321 kts | 201° |
| 2026-05-05 12:37 | 40.61254 | 3.46114 | 16328 ft | 320 kts | 201° |
| 2026-05-05 12:37 | 40.59123 | 3.45266 | 16072 ft | 319 kts | 200° |
| 2026-05-05 12:37 | 40.56998 | 3.44425 | 15822 ft | 318 kts | 200° |
| 2026-05-05 12:38 | 40.54884 | 3.43585 | 15577 ft | 317 kts | 200° |
| 2026-05-05 12:38 | 40.52774 | 3.42746 | 15333 ft | 316 kts | 200° |
| 2026-05-05 12:38 | 40.50670 | 3.41909 | 15078 ft | 316 kts | 200° |
| 2026-05-05 12:38 | 40.48572 | 3.41075 | 14833 ft | 315 kts | 200° |
| 2026-05-05 12:39 | 40.46480 | 3.40245 | 14596 ft | 313 kts | 200° |
| 2026-05-05 12:39 | 40.44395 | 3.39421 | 14354 ft | 313 kts | 200° |
| 2026-05-05 12:39 | 40.42318 | 3.38589 | 14103 ft | 312 kts | 200° |
| 2026-05-05 12:39 | 40.40251 | 3.37731 | 13751 ft | 311 kts | 200° |
| 2026-05-05 12:40 | 40.38196 | 3.36861 | 13327 ft | 310 kts | 200° |
| 2026-05-05 12:40 | 40.36153 | 3.35990 | 12908 ft | 308 kts | 200° |
| 2026-05-05 12:40 | 40.34117 | 3.35119 | 12494 ft | 307 kts | 200° |
| 2026-05-05 12:40 | 40.32087 | 3.34261 | 12091 ft | 306 kts | 200° |
| 2026-05-05 12:41 | 40.30064 | 3.33409 | 11675 ft | 305 kts | 200° |
| 2026-05-05 12:41 | 40.28050 | 3.32560 | 11284 ft | 304 kts | 200° |
| 2026-05-05 12:41 | 40.26039 | 3.31716 | 10891 ft | 303 kts | 200° |
| 2026-05-05 12:41 | 40.24034 | 3.30877 | 10499 ft | 302 kts | 200° |
| 2026-05-05 12:42 | 40.22038 | 3.30040 | 10203 ft | 301 kts | 200° |
| 2026-05-05 12:42 | 40.20047 | 3.29203 | 9983 ft | 297 kts | 199° |
| 2026-05-05 12:42 | 40.18125 | 3.28397 | 9862 ft | 284 kts | 200° |
| 2026-05-05 12:42 | 40.16275 | 3.27625 | 9735 ft | 276 kts | 199° |
| 2026-05-05 12:43 | 40.14457 | 3.26867 | 9560 ft | 273 kts | 199° |
| 2026-05-05 12:43 | 40.12648 | 3.26114 | 9323 ft | 272 kts | 199° |
| 2026-05-05 12:43 | 40.11453 | 3.25617 | 9167 ft | 272 kts | 199° |
| 2026-05-05 12:43 | 40.09652 | 3.24864 | 8934 ft | 271 kts | 199° |
| 2026-05-05 12:44 | 40.07853 | 3.24111 | 8699 ft | 271 kts | 199° |
| 2026-05-05 12:44 | 40.06059 | 3.23360 | 8470 ft | 271 kts | 199° |
| 2026-05-05 12:44 | 40.04265 | 3.22608 | 8244 ft | 271 kts | 199° |
| 2026-05-05 12:44 | 40.02474 | 3.21857 | 8015 ft | 270 kts | 199° |
| 2026-05-05 12:45 | 40.00686 | 3.21108 | 7788 ft | 270 kts | 199° |
| 2026-05-05 12:45 | 39.98897 | 3.20363 | 7570 ft | 269 kts | 199° |
| 2026-05-05 12:45 | 39.97115 | 3.19622 | 7345 ft | 269 kts | 199° |
| 2026-05-05 12:45 | 39.95334 | 3.18882 | 7117 ft | 269 kts | 199° |
| 2026-05-05 12:46 | 39.93553 | 3.18141 | 6905 ft | 268 kts | 199° |
| 2026-05-05 12:46 | 39.91776 | 3.17406 | 6684 ft | 268 kts | 199° |
| 2026-05-05 12:46 | 39.89999 | 3.16670 | 6461 ft | 266 kts | 199° |
| 2026-05-05 12:46 | 39.88265 | 3.15950 | 6256 ft | 258 kts | 199° |
| 2026-05-05 12:47 | 39.86583 | 3.15253 | 6016 ft | 249 kts | 199° |
| 2026-05-05 12:47 | 39.84954 | 3.14577 | 5789 ft | 243 kts | 199° |
| 2026-05-05 12:47 | 39.83363 | 3.13919 | 5561 ft | 237 kts | 199° |
| 2026-05-05 12:47 | 39.81814 | 3.13280 | 5338 ft | 230 kts | 199° |
| 2026-05-05 12:48 | 39.80308 | 3.12657 | 5109 ft | 224 kts | 199° |
| 2026-05-05 12:48 | 39.78846 | 3.12054 | 4948 ft | 218 kts | 199° |
| 2026-05-05 12:48 | 39.77405 | 3.11459 | 4830 ft | 217 kts | 199° |
| 2026-05-05 12:48 | 39.75968 | 3.10863 | 4691 ft | 216 kts | 200° |
| 2026-05-05 12:49 | 39.74556 | 3.10277 | 4587 ft | 212 kts | 200° |
| 2026-05-05 12:49 | 39.73152 | 3.09697 | 4501 ft | 211 kts | 200° |
| 2026-05-05 12:49 | 39.71776 | 3.09060 | 4499 ft | 209 kts | 209° |
| 2026-05-05 12:49 | 39.70587 | 3.07956 | 4155 ft | 212 kts | 227° |
| 2026-05-05 12:50 | 39.69739 | 3.06392 | 3777 ft | 213 kts | 239° |
| 2026-05-05 12:50 | 39.68968 | 3.04738 | 3402 ft | 215 kts | 238° |
| 2026-05-05 12:50 | 39.68202 | 3.03097 | 3154 ft | 211 kts | 238° |
| 2026-05-05 12:50 | 39.67443 | 3.01477 | 2901 ft | 208 kts | 237° |
| 2026-05-05 12:51 | 39.66698 | 2.99887 | 2647 ft | 205 kts | 237° |
| 2026-05-05 12:51 | 39.65961 | 2.98315 | 2512 ft | 203 kts | 236° |
| 2026-05-05 12:51 | 39.65241 | 2.96778 | 2504 ft | 200 kts | 237° |
| 2026-05-05 12:51 | 39.64511 | 2.95225 | 2514 ft | 199 kts | 237° |
| 2026-05-05 12:52 | 39.63817 | 2.93744 | 2514 ft | 188 kts | 237° |
| 2026-05-05 12:52 | 39.63148 | 2.92320 | 2507 ft | 181 kts | 237° |
| 2026-05-05 12:52 | 39.62526 | 2.90996 | 2492 ft | 162 kts | 237° |
| 2026-05-05 12:52 | 39.61969 | 2.89809 | 2377 ft | 147 kts | 236° |
| 2026-05-05 12:53 | 39.61462 | 2.88732 | 2235 ft | 137 kts | 237° |
| 2026-05-05 12:53 | 39.60971 | 2.87689 | 2063 ft | 135 kts | 236° |
| 2026-05-05 12:53 | 39.60488 | 2.86664 | 1889 ft | 132 kts | 234° |
| 2026-05-05 12:53 | 39.60014 | 2.85656 | 1730 ft | 130 kts | 234° |
| 2026-05-05 12:54 | 39.59062 | 2.83629 | 1345 ft | 130 kts | 235° |
| 2026-05-05 12:54 | 39.58581 | 2.82610 | 1180 ft | 131 kts | 235° |
| 2026-05-05 12:54 | 39.58097 | 2.81590 | 1020 ft | 133 kts | 237° |
| 2026-05-05 12:55 | 39.57618 | 2.80580 | 835 ft | 133 kts | 237° |
| 2026-05-05 12:55 | 39.57136 | 2.79554 | 655 ft | 131 kts | 237° |
| 2026-05-05 12:55 | 39.56663 | 2.78551 | 435 ft | 130 kts | 237° |
| 2026-05-05 12:55 | 39.56193 | 2.77554 | 332 ft | 128 kts | 237° |
| 2026-05-05 12:56 | 39.55733 | 2.76571 | 155 ft | 129 kts | 238° |
| 2026-05-05 12:56 | 39.55269 | 2.75586 | 54 ft | 127 kts | 237° |
| 2026-05-05 12:56 | 39.54867 | 2.74735 | 38 ft | 87 kts | 239° |
| 2026-05-05 12:56 | 39.54641 | 2.74258 | 38 ft | 35 kts | 238° |
| 2026-05-05 12:57 | 39.54557 | 2.74003 | 38 ft | 26 kts | 261° |
| 2026-05-05 12:57 | 39.54553 | 2.73794 | 38 ft | 16 kts | 276° |
| 2026-05-05 12:57 | 39.54630 | 2.73788 | 38 ft | 15 kts | 48° |
| 2026-05-05 12:57 | 39.54681 | 2.73896 | 38 ft | 13 kts | 60° |
| 2026-05-05 12:58 | 39.54727 | 2.73997 | 36 ft | 12 kts | 59° |
| 2026-05-05 12:58 | 39.54772 | 2.74089 | 38 ft | 12 kts | 54° |
| 2026-05-05 12:58 | 39.54847 | 2.74112 | 38 ft | 13 kts | 332° |
| 2026-05-05 12:58 | 39.54936 | 2.74042 | 38 ft | 18 kts | 328° |
| 2026-05-05 12:59 | 39.55064 | 2.73940 | 38 ft | 23 kts | 328° |
| 2026-05-05 12:59 | 39.55170 | 2.73852 | 36 ft | 12 kts | 318° |
| 2026-05-05 12:59 | 39.55173 | 2.73752 | 38 ft | 12 kts | 289° |
| 2026-05-05 13:00 | 39.55116 | 2.73624 | 38 ft | 6 kts | 188° |
| 2026-05-05 13:00 | 39.55090 | 2.73619 | 38 ft | 2 kts | 189° |
| 2026-05-05 13:01 | 39.55087 | 2.73618 | 38 ft | 0 kts | 189° |